Fjordprinsessen — LJVE — position and weather

sailwx.info

Track history (hours):
 
Tides and Currents Weather Stations Pressure Air Temp Water Temp Dewpoint Dewpoint Depression Visibility Wind Speed Wind Dir Waves Ship Positions

Fjordprinsessen

Last reported at 2015-Aug-29 06:21 UTC. Time now 2015-Aug-29 12:38 UTC.
Position N 66°17' E 012°56'.

Length 30 m; draft 2.5 m.

Type: High speed craft. MMSI: 259604000.

Date/timePositionNaut miles runAvg speedWind from/ knotsBaromVisibWave heightAir tempDewpointWater temp
2015-Aug-29 06:21N 66°17' E 012°56'912.1
2015-Aug-29 05:33N 66°23' E 012°38'6 5.9
2015-Aug-29 04:29N 66°22' E 012°22'0 0.0
2015-Aug-29 03:29N 66°22' E 012°22'0 0.0
2015-Aug-29 02:29N 66°22' E 012°22'0 0.0
2015-Aug-29 01:29N 66°22' E 012°22'0 0.0
2015-Aug-29 00:29N 66°22' E 012°22'0 0.0
2015-Aug-28 23:29N 66°22' E 012°22'0 0.0
2015-Aug-28 22:29N 66°22' E 012°22'0 0.0
2015-Aug-28 21:29N 66°22' E 012°22'0 0.0
2015-Aug-28 20:29N 66°22' E 012°22'0 0.2
2015-Aug-28 19:34N 66°22' E 012°22'1111.0
2015-Aug-28 18:33N 66°24' E 012°49'0 0.0
2015-Aug-28 17:33N 66°24' E 012°49'8 8.5
2015-Aug-28 16:34N 66°24' E 012°28'1313.1
2015-Aug-28 15:33N 66°20' E 013°00'1 0.2
2015-Aug-28 06:19N 66°19' E 012°58'811.0
2015-Aug-28 05:33N 66°23' E 012°39'1514.5
2015-Aug-28 04:32N 66°30' E 012°07'5 5.2
2015-Aug-28 03:31N 66°35' E 012°13'0 0.0
2015-Aug-28 01:19N 66°35' E 012°13'0 0.0
2015-Aug-28 00:31N 66°35' E 012°13'0 0.0
2015-Aug-27 21:30N 66°35' E 012°13'3 1.3
2015-Aug-27 19:33N 66°33' E 012°09'1414.2
2015-Aug-27 18:33N 66°25' E 012°37'1412.9
2015-Aug-27 17:27N 66°35' E 012°13'1314.8
2015-Aug-27 16:33N 66°22' E 012°22'20 2.1
2015-Aug-27 07:07N 66°03' E 012°39'1720.7
2015-Aug-27 06:19N 66°18' E 012°57'911.8
2015-Aug-27 05:34N 66°23' E 012°38'1414.1
2015-Aug-27 04:33N 66°30' E 012°09'5 4.4
2015-Aug-27 03:23N 66°35' E 012°13'0 0.0
2015-Aug-27 01:27N 66°35' E 012°13'0 0.0
2015-Aug-27 00:33N 66°35' E 012°13'0 0.0
2015-Aug-26 23:32N 66°35' E 012°13'0 0.0
2015-Aug-26 22:33N 66°35' E 012°13'0 0.0
2015-Aug-26 21:33N 66°35' E 012°13'0 0.0
2015-Aug-26 20:32N 66°35' E 012°13'3 3.3
2015-Aug-26 19:33N 66°33' E 012°08'1615.9
2015-Aug-26 18:33N 66°22' E 012°37'1313.2
2015-Aug-26 17:33N 66°33' E 012°18'1110.9
2015-Aug-26 16:34N 66°22' E 012°22'1513.2
2015-Aug-26 15:24N 66°20' E 012°60'3 1.3
2015-Aug-26 13:18N 66°18' E 012°57'1216.4
2015-Aug-26 12:33N 66°27' E 012°36'1010.2
2015-Aug-26 11:34N 66°29' E 012°11'1413.7
2015-Aug-26 10:33N 66°23' E 012°42'1612.3
2015-Aug-26 09:16N 66°07' E 012°47'14 4.6
2015-Aug-26 06:13N 66°20' E 013°00'913.2
2015-Aug-26 05:33N 66°23' E 012°39'1414.2
2015-Aug-26 04:33N 66°30' E 012°09'5 2.6
2015-Aug-26 02:32N 66°35' E 012°13'0 0.0
2015-Aug-26 01:08N 66°35' E 012°13'0 0.0
2015-Aug-26 00:26N 66°35' E 012°13'0 0.0
2015-Aug-25 23:20N 66°35' E 012°13'0 0.0
2015-Aug-25 21:14N 66°35' E 012°13'3 2.0
2015-Aug-25 19:33N 66°33' E 012°08'1616.1
2015-Aug-25 18:33N 66°22' E 012°37'1414.0
2015-Aug-25 17:32N 66°34' E 012°16'1211.8
2015-Aug-25 16:33N 66°22' E 012°23'1513.3
2015-Aug-25 15:26N 66°20' E 012°60'19 2.3
2015-Aug-25 07:09N 66°03' E 012°39'1522.4
2015-Aug-25 06:29N 66°17' E 012°56'9 9.6
2015-Aug-25 05:33N 66°23' E 012°40'1514.7
2015-Aug-25 04:33N 66°30' E 012°09'5 5.0
2015-Aug-25 03:32N 66°35' E 012°13'0 0.0
2015-Aug-25 02:32N 66°35' E 012°13'0 0.0
2015-Aug-25 01:32N 66°35' E 012°13'0 0.0
2015-Aug-25 00:32N 66°35' E 012°13'0 0.0
2015-Aug-24 23:31N 66°35' E 012°13'0 0.0
2015-Aug-24 22:34N 66°35' E 012°13'0 0.0
2015-Aug-24 21:34N 66°35' E 012°13'0 0.0
2015-Aug-24 20:34N 66°35' E 012°13'0 0.0
2015-Aug-24 19:34N 66°35' E 012°13'1312.8
2015-Aug-24 18:33N 66°24' E 012°31'1110.6
2015-Aug-24 17:33N 66°33' E 012°17'1111.6
2015-Aug-24 16:33N 66°22' E 012°22'1513.2
2015-Aug-24 15:27N 66°20' E 012°59'3 0.3
2015-Aug-24 06:20N 66°18' E 012°57'810.7
2015-Aug-24 05:34N 66°23' E 012°41'1514.9
2015-Aug-24 04:34N 66°30' E 012°08'5 5.1
2015-Aug-24 03:33N 66°35' E 012°13'0 0.0
2015-Aug-24 02:32N 66°35' E 012°13'0 0.0
2015-Aug-24 01:32N 66°35' E 012°13'0 0.0
2015-Aug-24 00:33N 66°35' E 012°13'0 0.0
2015-Aug-23 23:33N 66°35' E 012°13'0 0.0
2015-Aug-23 22:32N 66°35' E 012°13'0 0.0
2015-Aug-23 21:32N 66°35' E 012°13'6 5.9
2015-Aug-23 20:33N 66°30' E 012°06'1514.8
2015-Aug-23 19:34N 66°22' E 012°38'10 7.0
2015-Aug-23 18:12N 66°17' E 012°57'812.2
2015-Aug-23 17:32N 66°23' E 012°45'1615.2
2015-Aug-23 16:30N 66°30' E 012°09'1010.2
2015-Aug-23 15:33N 66°28' E 012°33'12 9.8
2015-Aug-23 14:18N 66°21' E 012°57'1115.0
2015-Aug-23 13:33N 66°24' E 012°31'1312.7
2015-Aug-23 12:32N 66°35' E 012°13'0 0.2
2015-Aug-23 10:30N 66°35' E 012°13'0 0.0
2015-Aug-23 08:23N 66°35' E 012°13'0 0.0
2015-Aug-23 05:29N 66°35' E 012°13'0 0.0
2015-Aug-23 03:11N 66°35' E 012°13'0 0.0
2015-Aug-23 01:05N 66°35' E 012°13'0 0.0
2015-Aug-23 00:29N 66°35' E 012°13'3 0.6
2015-Aug-22 19:33N 66°33' E 012°09'1615.9
2015-Aug-22 18:33N 66°22' E 012°37'1615.4
2015-Aug-22 17:31N 66°35' E 012°13'1313.5
2015-Aug-22 16:33N 66°22' E 012°22'1514.6
2015-Aug-22 15:31N 66°20' E 013°00'3 0.3
2015-Aug-22 06:24N 66°18' E 012°57'910.6
2015-Aug-22 05:33N 66°23' E 012°38'1514.7
2015-Aug-22 04:33N 66°30' E 012°06'6 5.7
2015-Aug-22 03:32N 66°35' E 012°13'0 0.0
2015-Aug-22 02:32N 66°35' E 012°13'0 0.0
2015-Aug-22 01:23N 66°35' E 012°13'0 0.0
2015-Aug-22 00:33N 66°35' E 012°13'0 0.0
2015-Aug-21 23:33N 66°35' E 012°13'0 0.0
2015-Aug-21 22:31N 66°35' E 012°13'0 0.0
2015-Aug-21 21:33N 66°35' E 012°13'0 0.0
2015-Aug-21 20:20N 66°35' E 012°13'1215.8
2015-Aug-21 19:34N 66°23' E 012°21'1211.4
2015-Aug-21 18:33N 66°24' E 012°49'1918.7
2015-Aug-21 17:33N 66°35' E 012°12'1313.2
2015-Aug-21 16:34N 66°22' E 012°23'1515.0
2015-Aug-21 15:33N 66°20' E 013°00'0 0.0
2015-Aug-21 13:04N 66°20' E 013°00'918.0
2015-Aug-21 12:33N 66°25' E 012°41'1514.7
2015-Aug-21 11:34N 66°30' E 012°06'1514.8
2015-Aug-21 10:34N 66°22' E 012°38'1512.2
2015-Aug-21 09:19N 66°08' E 012°50'7 3.0
2015-Aug-21 07:07N 66°03' E 012°39'1722.4
2015-Aug-21 06:20N 66°19' E 012°58'810.5
2015-Aug-21 05:33N 66°23' E 012°40'1514.6
2015-Aug-21 04:33N 66°30' E 012°08'5 4.8
2015-Aug-21 03:28N 66°35' E 012°13'0 0.0
2015-Aug-21 02:33N 66°35' E 012°13'0 0.0
2015-Aug-21 01:33N 66°35' E 012°13'0 0.0
2015-Aug-21 00:33N 66°35' E 012°13'0 0.0
2015-Aug-20 23:29N 66°35' E 012°13'0 0.0
2015-Aug-20 19:33N 66°35' E 012°13'1616.1
2015-Aug-20 18:33N 66°22' E 012°38'1413.8
2015-Aug-20 17:33N 66°33' E 012°17'1111.6
2015-Aug-20 16:34N 66°22' E 012°22'1514.6
2015-Aug-20 15:30N 66°20' E 013°00'19 2.3
2015-Aug-20 07:07N 66°03' E 012°39'1521.5
2015-Aug-20 06:25N 66°17' E 012°56'911.1
2015-Aug-20 05:34N 66°23' E 012°38'1514.8
2015-Aug-20 04:33N 66°30' E 012°06'6 4.9
2015-Aug-20 03:23N 66°35' E 012°13'0 0.0
2015-Aug-20 02:29N 66°35' E 012°13'0 0.0
2015-Aug-20 01:23N 66°35' E 012°13'0 0.0
2015-Aug-20 00:17N 66°35' E 012°13'0 0.0
2015-Aug-19 21:29N 66°35' E 012°13'0 0.0
2015-Aug-19 20:23N 66°35' E 012°13'5 5.8
2015-Aug-19 19:33N 66°31' E 012°07'1515.0
2015-Aug-19 18:33N 66°22' E 012°37'1615.7
2015-Aug-19 17:31N 66°35' E 012°12'1313.8
2015-Aug-19 16:33N 66°22' E 012°22'1513.7
2015-Aug-19 15:26N 66°20' E 013°00'2 0.9
2015-Aug-19 13:14N 66°19' E 012°58'914.1
2015-Aug-19 12:33N 66°25' E 012°41'1514.7
2015-Aug-19 11:33N 66°30' E 012°07'1514.8
2015-Aug-19 10:33N 66°23' E 012°39'1512.8
2015-Aug-19 09:21N 66°08' E 012°51'10 3.4
2015-Aug-19 06:22N 66°18' E 012°57'  
Track history (hours):
 
Tides and Currents Weather Stations Pressure Air Temp Water Temp Dewpoint Dewpoint Depression Visibility Wind Speed Wind Dir Waves Ship Positions

Fjordprinsessen

Last reported at 2015-Aug-29 06:21 UTC. Time now 2015-Aug-29 12:38 UTC.
Position N 66°17' E 012°56'.

Length 30 m; draft 2.5 m.

Type: High speed craft. MMSI: 259604000.

Date/timePositionNaut miles runAvg speedWind from/ knotsBaromVisibWave heightAir tempDewpointWater temp
2015-Aug-29 06:21N 66°17' E 012°56'912.1
2015-Aug-29 05:33N 66°23' E 012°38'6 5.9
2015-Aug-29 04:29N 66°22' E 012°22'0 0.0
2015-Aug-29 03:29N 66°22' E 012°22'0 0.0
2015-Aug-29 02:29N 66°22' E 012°22'0 0.0
2015-Aug-29 01:29N 66°22' E 012°22'0 0.0
2015-Aug-29 00:29N 66°22' E 012°22'0 0.0
2015-Aug-28 23:29N 66°22' E 012°22'0 0.0
2015-Aug-28 22:29N 66°22' E 012°22'0 0.0
2015-Aug-28 21:29N 66°22' E 012°22'0 0.0
2015-Aug-28 20:29N 66°22' E 012°22'0 0.2
2015-Aug-28 19:34N 66°22' E 012°22'1111.0
2015-Aug-28 18:33N 66°24' E 012°49'0 0.0
2015-Aug-28 17:33N 66°24' E 012°49'8 8.5
2015-Aug-28 16:34N 66°24' E 012°28'1313.1
2015-Aug-28 15:33N 66°20' E 013°00'1 0.2
2015-Aug-28 06:19N 66°19' E 012°58'811.0
2015-Aug-28 05:33N 66°23' E 012°39'1514.5
2015-Aug-28 04:32N 66°30' E 012°07'5 5.2
2015-Aug-28 03:31N 66°35' E 012°13'0 0.0
2015-Aug-28 01:19N 66°35' E 012°13'0 0.0
2015-Aug-28 00:31N 66°35' E 012°13'0 0.0
2015-Aug-27 21:30N 66°35' E 012°13'3 1.3
2015-Aug-27 19:33N 66°33' E 012°09'1414.2
2015-Aug-27 18:33N 66°25' E 012°37'1412.9
2015-Aug-27 17:27N 66°35' E 012°13'1314.8
2015-Aug-27 16:33N 66°22' E 012°22'20 2.1
2015-Aug-27 07:07N 66°03' E 012°39'1720.7
2015-Aug-27 06:19N 66°18' E 012°57'911.8
2015-Aug-27 05:34N 66°23' E 012°38'1414.1
2015-Aug-27 04:33N 66°30' E 012°09'5 4.4
2015-Aug-27 03:23N 66°35' E 012°13'0 0.0
2015-Aug-27 01:27N 66°35' E 012°13'0 0.0
2015-Aug-27 00:33N 66°35' E 012°13'0 0.0
2015-Aug-26 23:32N 66°35' E 012°13'0 0.0
2015-Aug-26 22:33N 66°35' E 012°13'0 0.0
2015-Aug-26 21:33N 66°35' E 012°13'0 0.0
2015-Aug-26 20:32N 66°35' E 012°13'3 3.3
2015-Aug-26 19:33N 66°33' E 012°08'1615.9
2015-Aug-26 18:33N 66°22' E 012°37'1313.2
2015-Aug-26 17:33N 66°33' E 012°18'1110.9
2015-Aug-26 16:34N 66°22' E 012°22'1513.2
2015-Aug-26 15:24N 66°20' E 012°60'3 1.3
2015-Aug-26 13:18N 66°18' E 012°57'1216.4
2015-Aug-26 12:33N 66°27' E 012°36'1010.2
2015-Aug-26 11:34N 66°29' E 012°11'1413.7
2015-Aug-26 10:33N 66°23' E 012°42'1612.3
2015-Aug-26 09:16N 66°07' E 012°47'14 4.6
2015-Aug-26 06:13N 66°20' E 013°00'913.2
2015-Aug-26 05:33N 66°23' E 012°39'1414.2
2015-Aug-26 04:33N 66°30' E 012°09'5 2.6
2015-Aug-26 02:32N 66°35' E 012°13'0 0.0
2015-Aug-26 01:08N 66°35' E 012°13'0 0.0
2015-Aug-26 00:26N 66°35' E 012°13'0 0.0
2015-Aug-25 23:20N 66°35' E 012°13'0 0.0
2015-Aug-25 21:14N 66°35' E 012°13'3 2.0
2015-Aug-25 19:33N 66°33' E 012°08'1616.1
2015-Aug-25 18:33N 66°22' E 012°37'1414.0
2015-Aug-25 17:32N 66°34' E 012°16'1211.8
2015-Aug-25 16:33N 66°22' E 012°23'1513.3
2015-Aug-25 15:26N 66°20' E 012°60'19 2.3
2015-Aug-25 07:09N 66°03' E 012°39'1522.4
2015-Aug-25 06:29N 66°17' E 012°56'9 9.6
2015-Aug-25 05:33N 66°23' E 012°40'1514.7
2015-Aug-25 04:33N 66°30' E 012°09'5 5.0
2015-Aug-25 03:32N 66°35' E 012°13'0 0.0
2015-Aug-25 02:32N 66°35' E 012°13'0 0.0
2015-Aug-25 01:32N 66°35' E 012°13'0 0.0
2015-Aug-25 00:32N 66°35' E 012°13'0 0.0
2015-Aug-24 23:31N 66°35' E 012°13'0 0.0
2015-Aug-24 22:34N 66°35' E 012°13'0 0.0
2015-Aug-24 21:34N 66°35' E 012°13'0 0.0
2015-Aug-24 20:34N 66°35' E 012°13'0 0.0
2015-Aug-24 19:34N 66°35' E 012°13'1312.8
2015-Aug-24 18:33N 66°24' E 012°31'1110.6
2015-Aug-24 17:33N 66°33' E 012°17'1111.6
2015-Aug-24 16:33N 66°22' E 012°22'1513.2
2015-Aug-24 15:27N 66°20' E 012°59'3 0.3
2015-Aug-24 06:20N 66°18' E 012°57'810.7
2015-Aug-24 05:34N 66°23' E 012°41'1514.9
2015-Aug-24 04:34N 66°30' E 012°08'5 5.1
2015-Aug-24 03:33N 66°35' E 012°13'0 0.0
2015-Aug-24 02:32N 66°35' E 012°13'0 0.0
2015-Aug-24 01:32N 66°35' E 012°13'0 0.0
2015-Aug-24 00:33N 66°35' E 012°13'0 0.0
2015-Aug-23 23:33N 66°35' E 012°13'0 0.0
2015-Aug-23 22:32N 66°35' E 012°13'0 0.0
2015-Aug-23 21:32N 66°35' E 012°13'6 5.9
2015-Aug-23 20:33N 66°30' E 012°06'1514.8
2015-Aug-23 19:34N 66°22' E 012°38'10 7.0
2015-Aug-23 18:12N 66°17' E 012°57'812.2
2015-Aug-23 17:32N 66°23' E 012°45'1615.2
2015-Aug-23 16:30N 66°30' E 012°09'1010.2
2015-Aug-23 15:33N 66°28' E 012°33'12 9.8
2015-Aug-23 14:18N 66°21' E 012°57'1115.0
2015-Aug-23 13:33N 66°24' E 012°31'1312.7
2015-Aug-23 12:32N 66°35' E 012°13'0 0.2
2015-Aug-23 10:30N 66°35' E 012°13'0 0.0
2015-Aug-23 08:23N 66°35' E 012°13'0 0.0
2015-Aug-23 05:29N 66°35' E 012°13'0 0.0
2015-Aug-23 03:11N 66°35' E 012°13'0 0.0
2015-Aug-23 01:05N 66°35' E 012°13'0 0.0
2015-Aug-23 00:29N 66°35' E 012°13'3 0.6
2015-Aug-22 19:33N 66°33' E 012°09'1615.9
2015-Aug-22 18:33N 66°22' E 012°37'1615.4
2015-Aug-22 17:31N 66°35' E 012°13'1313.5
2015-Aug-22 16:33N 66°22' E 012°22'1514.6
2015-Aug-22 15:31N 66°20' E 013°00'3 0.3
2015-Aug-22 06:24N 66°18' E 012°57'910.6
2015-Aug-22 05:33N 66°23' E 012°38'1514.7
2015-Aug-22 04:33N 66°30' E 012°06'6 5.7
2015-Aug-22 03:32N 66°35' E 012°13'0 0.0
2015-Aug-22 02:32N 66°35' E 012°13'0 0.0
2015-Aug-22 01:23N 66°35' E 012°13'0 0.0
2015-Aug-22 00:33N 66°35' E 012°13'0 0.0
2015-Aug-21 23:33N 66°35' E 012°13'0 0.0
2015-Aug-21 22:31N 66°35' E 012°13'0 0.0
2015-Aug-21 21:33N 66°35' E 012°13'0 0.0
2015-Aug-21 20:20N 66°35' E 012°13'1215.8
2015-Aug-21 19:34N 66°23' E 012°21'1211.4
2015-Aug-21 18:33N 66°24' E 012°49'1918.7
2015-Aug-21 17:33N 66°35' E 012°12'1313.2
2015-Aug-21 16:34N 66°22' E 012°23'1515.0
2015-Aug-21 15:33N 66°20' E 013°00'0 0.0
2015-Aug-21 13:04N 66°20' E 013°00'918.0
2015-Aug-21 12:33N 66°25' E 012°41'1514.7
2015-Aug-21 11:34N 66°30' E 012°06'1514.8
2015-Aug-21 10:34N 66°22' E 012°38'1512.2
2015-Aug-21 09:19N 66°08' E 012°50'7 3.0
2015-Aug-21 07:07N 66°03' E 012°39'1722.4
2015-Aug-21 06:20N 66°19' E 012°58'810.5
2015-Aug-21 05:33N 66°23' E 012°40'1514.6
2015-Aug-21 04:33N 66°30' E 012°08'5 4.8
2015-Aug-21 03:28N 66°35' E 012°13'0 0.0
2015-Aug-21 02:33N 66°35' E 012°13'0 0.0
2015-Aug-21 01:33N 66°35' E 012°13'0 0.0
2015-Aug-21 00:33N 66°35' E 012°13'0 0.0
2015-Aug-20 23:29N 66°35' E 012°13'0 0.0
2015-Aug-20 19:33N 66°35' E 012°13'1616.1
2015-Aug-20 18:33N 66°22' E 012°38'1413.8
2015-Aug-20 17:33N 66°33' E 012°17'1111.6
2015-Aug-20 16:34N 66°22' E 012°22'1514.6
2015-Aug-20 15:30N 66°20' E 013°00'19 2.3
2015-Aug-20 07:07N 66°03' E 012°39'1521.5
2015-Aug-20 06:25N 66°17' E 012°56'911.1
2015-Aug-20 05:34N 66°23' E 012°38'1514.8
2015-Aug-20 04:33N 66°30' E 012°06'6 4.9
2015-Aug-20 03:23N 66°35' E 012°13'0 0.0
2015-Aug-20 02:29N 66°35' E 012°13'0 0.0
2015-Aug-20 01:23N 66°35' E 012°13'0 0.0
2015-Aug-20 00:17N 66°35' E 012°13'0 0.0
2015-Aug-19 21:29N 66°35' E 012°13'0 0.0
2015-Aug-19 20:23N 66°35' E 012°13'5 5.8
2015-Aug-19 19:33N 66°31' E 012°07'1515.0
2015-Aug-19 18:33N 66°22' E 012°37'1615.7
2015-Aug-19 17:31N 66°35' E 012°12'1313.8
2015-Aug-19 16:33N 66°22' E 012°22'1513.7
2015-Aug-19 15:26N 66°20' E 013°00'2 0.9
2015-Aug-19 13:14N 66°19' E 012°58'914.1
2015-Aug-19 12:33N 66°25' E 012°41'1514.7
2015-Aug-19 11:33N 66°30' E 012°07'1514.8
2015-Aug-19 10:33N 66°23' E 012°39'1512.8
2015-Aug-19 09:21N 66°08' E 012°51'10 3.4
2015-Aug-19 06:22N 66°18' E 012°57'  

Dump ship's entire track history